Piqua, Kentucky
Current Conditions -  °F | °C
As of 11:35 AM on Tuesday 21 Oct 2014 (Local Time) from KFGX Reporting Station
Overcast Overcast  
Wind Chill: 53°   Ceiling: 3300
Heat Index: 53°   Visibility: 10mi
Dew Point: 44°   Wind: 12mph
Humidity: 70%   Direction: 350°N
Pressure: 30.03"   Gusts: NA
Location:  38.5189°N, 84.0521°W
Report Text: KFGX 211535Z AUTO 35010KT 10SM SCT024 BKN033 OVC060 12/06 A3003 RMK AO2 T01170064
Loading
Personal Weather Stations






























Interactive Weather Map
Tropical Storm Tracking
New forecast layout! Learn more

10-Day Weather Forecast

Advertisements
Track Severe Weather on mobile